createdAt,value
2018-04-04T00:02:05.010Z,14.80
2018-04-04T00:04:31.997Z,14.80
2018-04-04T00:06:58.244Z,14.80
2018-04-04T00:09:26.073Z,14.90
2018-04-04T00:11:53.746Z,14.70
2018-04-04T00:14:21.401Z,14.60
2018-04-04T00:16:48.401Z,14.60
2018-04-04T00:19:15.207Z,14.60
2018-04-04T00:21:41.468Z,14.60
2018-04-04T00:24:07.716Z,14.70
2018-04-04T00:26:34.201Z,14.60
2018-04-04T00:29:00.452Z,14.60
2018-04-04T00:31:27.640Z,14.50
2018-04-04T00:33:54.607Z,14.40
2018-04-04T00:36:20.856Z,14.40
2018-04-04T00:38:47.115Z,14.40
2018-04-04T00:41:13.765Z,14.30
2018-04-04T00:43:41.052Z,14.30
2018-04-04T00:46:08.788Z,14.30
2018-04-04T00:48:36.370Z,14.30
2018-04-04T00:51:03.748Z,14.30
2018-04-04T00:53:30.617Z,14.30
2018-04-04T00:55:56.873Z,14.30
2018-04-04T00:58:23.121Z,14.30
2018-04-04T01:00:49.868Z,14.30
2018-04-04T01:03:17.345Z,14.30
2018-04-04T01:05:44.341Z,14.30
2018-04-04T01:08:10.572Z,14.30
2018-04-04T01:10:37.476Z,14.40
2018-04-04T01:13:05.252Z,14.60
2018-04-04T01:15:32.234Z,14.50
2018-04-04T01:17:59.011Z,14.50
2018-04-04T01:20:25.892Z,14.50
2018-04-04T01:22:52.879Z,14.50
2018-04-04T01:25:19.577Z,14.50
2018-04-04T01:27:45.817Z,14.60
2018-04-04T01:30:12.091Z,14.60
2018-04-04T01:32:38.361Z,14.50
2018-04-04T01:35:04.609Z,14.50
2018-04-04T01:37:30.976Z,14.40
2018-04-04T01:39:57.500Z,14.40
2018-04-04T01:42:23.759Z,14.40
2018-04-04T01:44:50.570Z,14.30
2018-04-04T01:47:17.322Z,14.40
2018-04-04T01:49:44.181Z,14.30
2018-04-04T01:52:11.874Z,14.40
2018-04-04T01:54:38.116Z,14.30
2018-04-04T01:57:04.364Z,14.30
2018-04-04T01:59:30.634Z,14.30
2018-04-04T02:01:57.495Z,14.30
2018-04-04T02:04:23.745Z,14.30
2018-04-04T02:06:50.732Z,14.20
2018-04-04T02:09:17.321Z,14.10
2018-04-04T02:11:44.071Z,14.20
2018-04-04T02:14:10.840Z,14.10
2018-04-04T02:16:37.076Z,14.20
2018-04-04T02:19:03.336Z,14.20
2018-04-04T02:21:29.796Z,14.20
2018-04-04T02:23:58.048Z,14.20
2018-04-04T02:26:24.305Z,14.10
2018-04-04T02:28:50.565Z,14.00
2018-04-04T02:31:16.849Z,14.00
2018-04-04T02:33:43.108Z,14.00
2018-04-04T02:36:09.522Z,14.00
2018-04-04T02:38:36.336Z,14.10
2018-04-04T02:41:04.314Z,14.10
2018-04-04T02:43:31.300Z,14.00
2018-04-04T02:45:58.129Z,14.10
2018-04-04T02:48:25.269Z,14.10
2018-04-04T02:50:52.428Z,14.00
2018-04-04T02:53:19.856Z,14.00
2018-04-04T02:55:46.114Z,14.00
2018-04-04T02:58:13.137Z,14.00
2018-04-04T03:00:40.124Z,14.00
2018-04-04T03:03:07.628Z,13.90
2018-04-04T03:05:33.899Z,13.90
2018-04-04T03:08:00.975Z,13.90
2018-04-04T03:10:28.631Z,13.80
2018-04-04T03:12:56.081Z,13.70
2018-04-04T03:15:22.422Z,13.70
2018-04-04T03:17:48.657Z,13.70
2018-04-04T03:20:15.225Z,13.70
2018-04-04T03:22:42.204Z,13.60
2018-04-04T03:25:08.546Z,13.60
2018-04-04T03:27:35.047Z,13.50
2018-04-04T03:30:02.060Z,13.40
2018-04-04T03:32:28.316Z,13.40
2018-04-04T03:34:55.129Z,13.40
2018-04-04T03:37:21.406Z,13.30
2018-04-04T03:39:48.789Z,13.10
2018-04-04T03:42:15.041Z,13.10
2018-04-04T03:44:41.732Z,13.00
2018-04-04T03:47:08.596Z,13.00
2018-04-04T03:49:35.905Z,12.90
2018-04-04T03:52:02.138Z,12.90
2018-04-04T03:54:28.816Z,12.90
2018-04-04T03:56:55.068Z,12.90
2018-04-04T03:59:22.132Z,12.80
2018-04-04T04:01:49.890Z,12.80
2018-04-04T04:04:16.871Z,12.70
2018-04-04T04:06:43.893Z,12.70
2018-04-04T04:09:11.366Z,12.70
2018-04-04T04:11:38.984Z,12.60
2018-04-04T04:14:05.265Z,12.60
2018-04-04T04:16:32.262Z,12.50
2018-04-04T04:18:58.747Z,12.50
2018-04-04T04:21:26.240Z,12.40
2018-04-04T04:23:53.148Z,12.40
2018-04-04T04:26:20.006Z,12.40
2018-04-04T04:28:47.006Z,12.30
2018-04-04T04:31:13.250Z,12.30
2018-04-04T04:33:39.514Z,12.30
2018-04-04T04:36:06.383Z,12.20
2018-04-04T04:38:33.390Z,12.20
2018-04-04T04:41:00.494Z,12.10
2018-04-04T04:43:27.536Z,12.10
2018-04-04T04:45:54.526Z,12.20
2018-04-04T04:48:21.238Z,12.20
2018-04-04T04:50:48.232Z,12.20
2018-04-04T04:53:14.942Z,12.20
2018-04-04T04:55:42.403Z,12.20
2018-04-04T04:58:09.393Z,12.20
2018-04-04T05:00:38.036Z,12.20
2018-04-04T05:03:05.262Z,12.30
2018-04-04T05:05:31.536Z,12.20
2018-04-04T05:07:59.174Z,12.20
2018-04-04T05:10:26.202Z,12.20
2018-04-04T05:12:52.446Z,12.30
2018-04-04T05:15:19.046Z,12.20
2018-04-04T05:17:45.761Z,12.30
2018-04-04T05:20:12.736Z,12.30
2018-04-04T05:22:39.436Z,12.30
2018-04-04T05:25:05.683Z,12.40
2018-04-04T05:27:32.036Z,12.30
2018-04-04T05:29:59.305Z,12.30
2018-04-04T05:32:25.561Z,12.30
2018-04-04T05:34:52.482Z,12.40
2018-04-04T05:37:19.482Z,12.40
2018-04-04T05:39:46.369Z,12.40
2018-04-04T05:42:13.370Z,12.50
2018-04-04T05:44:39.634Z,12.50
2018-04-04T05:47:06.270Z,12.60
2018-04-04T05:49:32.539Z,12.60
2018-04-04T05:51:59.538Z,12.80
2018-04-04T05:54:26.227Z,12.80
2018-04-04T05:56:52.483Z,12.80
2018-04-04T05:59:19.989Z,13.00
2018-04-04T06:01:46.990Z,13.00
2018-04-04T06:04:14.754Z,13.20
2018-04-04T06:06:41.742Z,13.30
2018-04-04T06:09:07.994Z,13.30
2018-04-04T06:11:34.870Z,13.40
2018-04-04T06:14:01.551Z,13.40
2018-04-04T06:16:27.848Z,13.50
2018-04-04T06:18:54.078Z,13.60
2018-04-04T06:21:20.373Z,13.70
2018-04-04T06:23:46.646Z,13.70
2018-04-04T06:26:13.003Z,13.70
2018-04-04T06:28:39.258Z,13.80
2018-04-04T06:31:06.697Z,14.00
2018-04-04T06:33:32.950Z,13.90
2018-04-04T06:36:00.414Z,14.20
2018-04-04T06:38:27.417Z,14.20
2018-04-04T06:40:53.668Z,14.30
2018-04-04T06:43:20.279Z,14.30
2018-04-04T06:45:46.521Z,14.50
2018-04-04T06:48:13.315Z,14.60
2018-04-04T06:50:40.286Z,14.80
2018-04-04T06:53:08.039Z,14.80
2018-04-04T06:55:35.707Z,15.10
2018-04-04T06:58:03.383Z,15.20
2018-04-04T07:00:29.628Z,15.20
2018-04-04T07:02:56.590Z,15.30
2018-04-04T07:05:22.830Z,15.40
2018-04-04T07:07:49.631Z,15.40
2018-04-04T07:10:17.103Z,15.60
2018-04-04T07:12:44.562Z,15.70
2018-04-04T07:15:11.615Z,15.80
2018-04-04T07:17:38.615Z,15.90
2018-04-04T07:20:04.888Z,15.90
2018-04-04T07:22:31.150Z,16.00
2018-04-04T07:24:57.499Z,16.10
2018-04-04T07:27:23.966Z,16.20
2018-04-04T07:29:50.762Z,16.40
2018-04-04T07:32:17.742Z,16.50
2018-04-04T07:34:44.564Z,16.50
2018-04-04T07:37:11.620Z,16.50
2018-04-04T07:39:37.876Z,16.50
2018-04-04T07:42:04.158Z,16.60
2018-04-04T07:44:30.439Z,16.60
2018-04-04T07:46:57.360Z,16.50
2018-04-04T07:49:24.355Z,16.50
2018-04-04T07:51:50.610Z,16.40
2018-04-04T07:54:17.266Z,16.40
2018-04-04T07:56:43.912Z,16.30
2018-04-04T07:59:10.786Z,16.30
2018-04-04T08:01:38.361Z,16.40
2018-04-04T08:04:05.103Z,16.40
2018-04-04T08:06:32.638Z,16.60
2018-04-04T08:08:58.911Z,16.60
2018-04-04T08:11:26.052Z,16.70
2018-04-04T08:13:53.042Z,17.00
2018-04-04T08:16:19.298Z,17.00
2018-04-04T08:18:45.558Z,17.10
2018-04-04T08:21:11.897Z,17.20
2018-04-04T08:23:38.246Z,17.20
2018-04-04T08:26:07.140Z,17.40
2018-04-04T08:28:34.131Z,17.50
2018-04-04T08:31:01.143Z,17.50
2018-04-04T08:33:28.126Z,17.60
2018-04-04T08:35:54.375Z,17.60
2018-04-04T08:38:20.642Z,17.80
2018-04-04T08:40:46.883Z,17.80
2018-04-04T08:43:13.280Z,17.80
2018-04-04T08:45:39.556Z,17.90
2018-04-04T08:48:06.448Z,17.90
2018-04-04T08:50:32.685Z,18.00
2018-04-04T08:52:59.510Z,18.10
2018-04-04T08:55:26.495Z,18.30
2018-04-04T08:57:53.179Z,18.20
2018-04-04T09:00:19.458Z,18.30
2018-04-04T09:02:46.191Z,18.40
2018-04-04T09:05:13.263Z,18.60
2018-04-04T09:07:39.506Z,18.60
2018-04-04T09:10:06.662Z,18.70
2018-04-04T09:12:32.921Z,18.70
2018-04-04T09:14:59.175Z,18.80
2018-04-04T09:17:25.663Z,18.90
2018-04-04T09:19:51.914Z,19.00
2018-04-04T09:22:18.301Z,19.00
2018-04-04T09:24:45.740Z,19.10
2018-04-04T09:27:12.110Z,19.10
2018-04-04T09:29:39.543Z,19.30
2018-04-04T09:32:05.786Z,19.30
2018-04-04T09:34:32.044Z,19.40
2018-04-04T09:36:59.251Z,19.60
2018-04-04T09:39:25.495Z,19.50
2018-04-04T09:41:52.399Z,19.60
2018-04-04T09:44:18.703Z,19.70
2018-04-04T09:46:47.703Z,19.80
2018-04-04T09:49:16.012Z,19.90
2018-04-04T09:51:42.864Z,19.90
2018-04-04T09:54:09.643Z,20.00
2018-04-04T09:56:36.532Z,20.10
2018-04-04T09:59:03.530Z,20.30
2018-04-04T10:01:37.238Z,20.20
2018-04-04T10:04:04.119Z,20.30
2018-04-04T10:06:30.958Z,20.40
2018-04-04T10:08:57.206Z,20.50
2018-04-04T10:11:24.057Z,20.60
2018-04-04T10:13:50.310Z,20.70
2018-04-04T10:16:17.295Z,21.00
2018-04-04T10:18:43.796Z,21.00
2018-04-04T10:21:12.326Z,21.20
2018-04-04T10:23:38.578Z,21.30
2018-04-04T10:26:04.826Z,21.30
2018-04-04T10:28:31.706Z,21.50
2018-04-04T10:30:58.708Z,21.80
2018-04-04T10:33:24.962Z,21.70
2018-04-04T10:35:51.518Z,21.80
2018-04-04T10:38:20.042Z,22.10
2018-04-04T10:40:46.303Z,22.00
2018-04-04T10:43:12.562Z,22.20
2018-04-04T10:45:39.122Z,22.20
2018-04-04T10:48:06.586Z,22.20
2018-04-04T10:50:33.627Z,22.30
2018-04-04T10:53:00.391Z,22.30
2018-04-04T10:55:27.375Z,22.50
2018-04-04T10:57:54.278Z,22.40
2018-04-04T11:00:21.265Z,22.60
2018-04-04T11:02:47.970Z,22.50
2018-04-04T11:05:14.250Z,22.60
2018-04-04T11:07:40.514Z,22.60
2018-04-04T11:10:07.612Z,22.60
2018-04-04T11:12:34.602Z,22.70
2018-04-04T11:15:00.894Z,22.70
2018-04-04T11:17:27.928Z,22.80
2018-04-04T11:19:55.255Z,22.90
2018-04-04T11:22:21.519Z,22.90
2018-04-04T11:24:48.393Z,22.90
2018-04-04T11:27:16.258Z,23.00
2018-04-04T11:29:43.247Z,23.00
2018-04-04T11:32:09.530Z,23.00
2018-04-04T11:34:35.806Z,23.10
2018-04-04T11:37:02.116Z,23.10
2018-04-04T11:39:29.750Z,23.00
2018-04-04T11:41:56.022Z,23.00
2018-04-04T11:44:23.050Z,23.10
2018-04-04T11:46:49.754Z,23.10
2018-04-04T11:49:16.583Z,23.20
2018-04-04T11:51:43.206Z,23.30
2018-04-04T11:54:10.769Z,23.30
2018-04-04T11:56:38.210Z,23.40
2018-04-04T11:59:04.576Z,23.30
2018-04-04T12:01:31.570Z,23.20
2018-04-04T12:03:58.581Z,23.20
2018-04-04T12:06:24.863Z,23.30
2018-04-04T12:08:51.110Z,23.30
2018-04-04T12:11:17.884Z,23.30
2018-04-04T12:13:44.869Z,23.30
2018-04-04T12:16:11.134Z,23.30
2018-04-04T12:18:38.058Z,23.40
2018-04-04T12:21:04.976Z,23.40
2018-04-04T12:23:32.419Z,23.40
2018-04-04T12:25:59.401Z,23.30
2018-04-04T12:28:25.639Z,23.30
2018-04-04T12:30:51.915Z,23.40
2018-04-04T12:33:18.178Z,23.30
2018-04-04T12:35:44.526Z,23.20
2018-04-04T12:38:11.571Z,23.20
2018-04-04T12:40:37.817Z,23.20
2018-04-04T12:43:04.897Z,23.30
2018-04-04T12:45:31.721Z,23.30
2018-04-04T12:47:59.160Z,23.40
2018-04-04T12:50:25.422Z,23.40
2018-04-04T12:52:52.980Z,23.30
2018-04-04T12:55:19.970Z,23.30
2018-04-04T12:57:46.281Z,23.30
2018-04-04T13:00:12.526Z,23.30
2018-04-04T13:02:39.223Z,23.30
2018-04-04T13:05:05.578Z,23.40
2018-04-04T13:07:32.577Z,23.50
2018-04-04T13:09:59.170Z,23.50
2018-04-04T13:12:27.031Z,23.60
2018-04-04T13:14:53.655Z,23.60
2018-04-04T13:17:19.904Z,23.60
2018-04-04T13:19:46.975Z,23.50
2018-04-04T13:22:13.967Z,23.60
2018-04-04T13:24:40.225Z,23.60
2018-04-04T13:27:06.806Z,23.60
2018-04-04T13:29:33.786Z,23.70
2018-04-04T13:32:00.147Z,23.60
2018-04-04T13:34:26.789Z,23.70
2018-04-04T13:36:53.044Z,23.60
2018-04-04T13:39:20.774Z,23.40
2018-04-04T13:41:47.509Z,23.40
2018-04-04T13:44:13.754Z,23.40
2018-04-04T13:46:40.654Z,23.40
2018-04-04T13:49:08.542Z,23.50
2018-04-04T13:51:35.523Z,23.60
2018-04-04T13:54:02.118Z,23.60
2018-04-04T13:56:29.102Z,24.00
2018-04-04T13:58:55.350Z,24.00
2018-04-04T14:01:21.624Z,24.30
2018-04-04T14:03:48.488Z,24.40
2018-04-04T14:06:14.754Z,24.50
2018-04-04T14:08:41.137Z,24.50
2018-04-04T14:11:08.125Z,24.50
2018-04-04T14:13:35.537Z,24.40
2018-04-04T14:16:01.807Z,24.40
2018-04-04T14:18:28.446Z,24.40
2018-04-04T14:20:54.702Z,24.30
2018-04-04T14:23:21.705Z,25.10
2018-04-04T14:25:48.299Z,25.10
2018-04-04T14:28:15.295Z,26.30
2018-04-04T14:30:42.610Z,26.20
2018-04-04T14:33:09.720Z,26.80
2018-04-04T14:35:35.999Z,27.10
2018-04-04T14:38:03.026Z,27.70
2018-04-04T14:40:29.928Z,27.60
2018-04-04T14:42:56.739Z,27.80
2018-04-04T14:45:23.727Z,28.00
2018-04-04T14:47:50.847Z,28.00
2018-04-04T14:50:17.858Z,28.30
2018-04-04T14:52:44.626Z,28.20
2018-04-04T14:55:10.903Z,28.30
2018-04-04T14:57:37.214Z,28.50
2018-04-04T15:00:03.484Z,28.70
2018-04-04T15:02:30.267Z,28.90
2018-04-04T15:04:56.533Z,29.00
2018-04-04T15:07:23.519Z,28.90
2018-04-04T15:09:49.852Z,28.90
2018-04-04T15:12:16.674Z,28.90
2018-04-04T15:14:44.439Z,28.80
2018-04-04T15:17:11.426Z,28.90
2018-04-04T15:19:37.696Z,28.90
2018-04-04T15:22:04.266Z,29.00
2018-04-04T15:24:31.262Z,29.10
2018-04-04T15:26:57.700Z,29.10
2018-04-04T15:29:24.649Z,29.30
2018-04-04T15:31:50.927Z,29.40
2018-04-04T15:34:17.188Z,29.40
2018-04-04T15:36:44.943Z,29.70
2018-04-04T15:39:11.965Z,29.50
2018-04-04T15:41:38.854Z,29.50
2018-04-04T15:44:05.863Z,29.40
2018-04-04T15:46:32.118Z,29.40
2018-04-04T15:48:58.771Z,29.30
2018-04-04T15:51:25.017Z,29.50
2018-04-04T15:53:52.679Z,29.00
2018-04-04T15:56:19.667Z,28.80
2018-04-04T15:58:45.969Z,28.80
2018-04-04T16:01:13.562Z,26.90
2018-04-04T16:03:40.170Z,26.80
2018-04-04T16:06:07.166Z,24.80
2018-04-04T16:08:33.849Z,24.80
2018-04-04T16:11:01.022Z,24.00
2018-04-04T16:13:28.471Z,22.70
2018-04-04T16:15:54.727Z,22.60
2018-04-04T16:18:21.729Z,22.00
2018-04-04T16:20:48.314Z,21.90
2018-04-04T16:23:15.303Z,21.50
2018-04-04T16:25:42.114Z,21.40
2018-04-04T16:28:09.882Z,21.00
2018-04-04T16:30:37.359Z,20.60
2018-04-04T16:33:04.914Z,20.10
2018-04-04T16:35:32.251Z,19.90
2018-04-04T16:37:59.008Z,19.80
2018-04-04T16:40:25.274Z,19.70
2018-04-04T16:42:51.602Z,19.50
2018-04-04T16:45:18.347Z,19.40
2018-04-04T16:47:44.613Z,19.30
2018-04-04T16:50:10.882Z,19.10
2018-04-04T16:52:39.090Z,18.70
2018-04-04T16:55:06.087Z,18.70
2018-04-04T17:06:32.732Z,17.90
2018-04-04T17:08:58.986Z,17.70
2018-04-04T17:11:26.163Z,17.60
2018-04-04T17:13:53.150Z,17.30
2018-04-04T17:16:19.417Z,17.40
2018-04-04T17:18:45.977Z,17.30
2018-04-04T17:21:12.992Z,17.10
2018-04-04T17:23:39.355Z,17.00
2018-04-04T17:26:05.722Z,17.00
2018-04-04T17:28:31.978Z,16.90
2018-04-04T17:30:58.214Z,16.80
2018-04-04T17:33:25.026Z,16.70
2018-04-04T17:35:52.076Z,16.50
2018-04-04T17:38:19.085Z,16.40
2018-04-04T17:40:45.567Z,16.40
2018-04-04T17:43:12.583Z,16.20
2018-04-04T17:45:39.932Z,16.20
2018-04-04T17:48:06.634Z,16.10
2018-04-04T17:50:33.709Z,15.80
2018-04-04T17:53:00.631Z,15.80
2018-04-04T17:55:28.074Z,15.60
2018-04-04T17:57:54.378Z,15.60
2018-04-04T18:00:21.297Z,15.50
2018-04-04T18:02:48.142Z,15.40
2018-04-04T18:05:14.876Z,15.30
2018-04-04T18:07:42.437Z,15.10
2018-04-04T18:10:10.706Z,15.10
2018-04-04T18:12:37.694Z,15.00
2018-04-04T18:15:03.952Z,14.90
2018-04-04T18:17:30.786Z,14.90
2018-04-04T18:19:58.188Z,14.80
2018-04-04T18:22:24.462Z,15.20
2018-04-04T18:24:50.744Z,15.30
2018-04-04T18:27:16.998Z,15.30
2018-04-04T18:29:44.097Z,15.10
2018-04-04T18:32:10.375Z,15.10
2018-04-04T18:34:36.998Z,15.00
2018-04-04T18:37:03.282Z,14.90
2018-04-04T18:39:30.858Z,14.70
2018-04-04T18:41:57.604Z,14.80
2018-04-04T18:44:23.863Z,14.70
2018-04-04T18:46:50.678Z,14.60
2018-04-04T18:49:17.692Z,14.40
2018-04-04T18:51:43.959Z,14.40
2018-04-04T18:54:11.303Z,14.30
2018-04-04T18:56:37.578Z,14.30
2018-04-04T18:59:04.510Z,14.20
2018-04-04T19:01:31.971Z,14.30
2018-04-04T19:03:59.631Z,14.40
2018-04-04T19:06:27.096Z,14.50
2018-04-04T19:08:54.083Z,14.90
2018-04-04T19:11:21.199Z,14.80
2018-04-04T19:13:48.170Z,15.10
2018-04-04T19:16:14.492Z,15.10
2018-04-04T19:18:42.153Z,15.20
2018-04-04T19:21:09.151Z,15.20
2018-04-04T19:23:35.402Z,15.20
2018-04-04T19:26:01.695Z,15.10
2018-04-04T19:28:27.959Z,15.10
2018-04-04T19:30:54.951Z,15.00
2018-04-04T19:33:22.319Z,14.90
2018-04-04T19:35:49.330Z,14.70
2018-04-04T19:38:15.624Z,14.70
2018-04-04T19:40:42.559Z,14.70
2018-04-04T19:43:10.132Z,14.60
2018-04-04T19:45:37.558Z,14.60
2018-04-04T19:48:03.844Z,14.50
2018-04-04T19:50:30.116Z,14.50
2018-04-04T19:52:57.034Z,14.40
2018-04-04T19:55:23.290Z,14.30
2018-04-04T19:57:50.087Z,14.30
2018-04-04T20:00:17.553Z,14.20
2018-04-04T20:02:45.131Z,14.10
2018-04-04T20:05:11.815Z,14.10
2018-04-04T20:07:38.080Z,14.00
2018-04-04T20:10:05.559Z,14.00
2018-04-04T20:12:32.556Z,14.00
2018-04-04T20:14:58.807Z,14.00
2018-04-04T20:17:25.082Z,14.00
2018-04-04T20:19:52.095Z,13.90
2018-04-04T20:22:18.830Z,13.90
2018-04-04T20:24:45.722Z,13.90
2018-04-04T20:27:12.734Z,13.80
2018-04-04T20:29:38.983Z,13.70
2018-04-04T20:32:05.273Z,13.70
2018-04-04T20:34:31.997Z,13.70
2018-04-04T20:36:58.998Z,13.60
2018-04-04T20:39:25.458Z,13.60
2018-04-04T20:41:51.768Z,13.60
2018-04-04T20:44:18.065Z,13.50
2018-04-04T20:46:44.415Z,13.40
2018-04-04T20:49:10.734Z,13.40
2018-04-04T20:51:37.724Z,13.20
2018-04-04T20:54:04.634Z,13.20
2018-04-04T20:56:32.074Z,13.00
2018-04-04T20:58:58.330Z,13.00
2018-04-04T21:01:25.938Z,12.90
2018-04-04T21:03:52.735Z,12.90
2018-04-04T21:06:19.730Z,12.80
2018-04-04T21:08:46.774Z,12.80
2018-04-04T21:11:13.735Z,12.80
2018-04-04T21:13:40.039Z,12.80
2018-04-04T21:16:06.266Z,12.70
2018-04-04T21:18:33.705Z,12.70
2018-04-04T21:20:59.968Z,12.70
2018-04-04T21:23:26.962Z,12.70
2018-04-04T21:25:53.273Z,12.70
2018-04-04T21:28:19.511Z,12.60
2018-04-04T21:30:45.850Z,12.70
2018-04-04T21:33:13.082Z,12.60
2018-04-04T21:35:39.335Z,12.50
2018-04-04T21:38:05.673Z,12.60
2018-04-04T21:40:32.383Z,12.50
2018-04-04T21:42:59.374Z,12.50
2018-04-04T21:45:26.282Z,12.50
2018-04-04T21:47:53.346Z,12.50
2018-04-04T21:50:20.370Z,12.40
2018-04-04T21:52:47.238Z,12.40
2018-04-04T21:55:13.505Z,12.40
2018-04-04T21:57:40.730Z,12.30
2018-04-04T22:00:08.470Z,12.20
2018-04-04T22:02:34.690Z,12.20
2018-04-04T22:05:02.043Z,12.20
2018-04-04T22:07:28.946Z,12.20
2018-04-04T22:09:57.148Z,12.10
2018-04-04T22:12:23.720Z,12.10
2018-04-04T22:14:49.982Z,12.00
2018-04-04T22:17:16.242Z,11.90
2018-04-04T22:19:43.486Z,11.90
2018-04-04T22:22:10.494Z,11.80
2018-04-04T22:24:37.290Z,11.80
2018-04-04T22:27:04.283Z,11.70
2018-04-04T22:29:30.526Z,11.80
2018-04-04T22:31:56.815Z,11.70
2018-04-04T22:34:24.414Z,11.60
2018-04-04T22:36:50.658Z,11.60
2018-04-04T22:39:16.904Z,11.50
2018-04-04T22:41:43.175Z,11.50
2018-04-04T22:44:09.421Z,11.40
2018-04-04T22:46:36.509Z,11.30
2018-04-04T22:49:02.775Z,11.30
2018-04-04T22:51:29.458Z,11.20
2018-04-04T22:53:56.895Z,11.30
2018-04-04T22:56:23.879Z,11.20
2018-04-04T22:58:50.247Z,11.30
2018-04-04T23:01:17.067Z,11.30
2018-04-04T23:03:43.991Z,11.30
2018-04-04T23:06:11.354Z,11.20
2018-04-04T23:08:38.790Z,11.10
2018-04-04T23:11:05.518Z,11.10
2018-04-04T23:13:32.618Z,11.10
2018-04-04T23:16:00.018Z,11.00
2018-04-04T23:18:26.274Z,11.00
2018-04-04T23:20:52.533Z,11.00
2018-04-04T23:23:19.087Z,10.90
2018-04-04T23:25:46.067Z,10.80
2018-04-04T23:28:12.404Z,10.80
2018-04-04T23:30:38.659Z,10.90
2018-04-04T23:33:06.073Z,10.90
2018-04-04T23:35:33.071Z,11.00
2018-04-04T23:37:59.391Z,11.00
2018-04-04T23:40:25.898Z,11.10
2018-04-04T23:42:52.898Z,11.00
2018-04-04T23:45:19.270Z,11.00
2018-04-04T23:47:46.338Z,11.00
2018-04-04T23:50:13.327Z,11.10
2018-04-04T23:52:41.263Z,11.10
2018-04-04T23:55:08.247Z,11.10
2018-04-04T23:57:34.498Z,11.10
